Airfield :
LOGIN :

Register | Disclaimer

   EN    FR    IT 

 










Legend :    VFR   Marginal VFR   IFR   Intensive IFR   Very Intensive IFR
Visi :
Ceiling :
>= 8 km
>= 3000ft
5 to 8 km
1000 to 3000 ft
1500m to 5 km
500 to 1000 ft
800 to 1500m
200 to 500 ft
< 800m
< 200 ft
Symbols :   Thunderstorms  Fog  Heavy snow  Heavy precipitations  Wind > 20 kt
SIGMETs :     Misc.  Thunderstorms  Icing  Turbulence  Mountain Waves  Volcanic Ashes






- Airport Elevation : 215 ft
- IATA code : TAR


LIBG - Grottaglie Arpt. Taranto

CURRENT METAR :
  • 161150Z 17007KT 9999 SCT015 17/14 Q1023

EXPIRED METARs :
  • 161050Z 18006KT 140V200 9999 SCT015 SCT020 16/14 Q1023
  • 160950Z 20008KT 9999 SCT010 BKN025 15/14 Q1024

TAF TAF LIBG
Valid from the 16 at 12:00 until the 16 at 21:00 UTC


161100Z 1612/1621 20012KT CAVOK



MET'MAP, your aeronautical weather chart ! - Copyright ORBIFLY December 2007 - Disclaimer

ORBIFLY MET'MAP TEAM :

Programming & Development : Alexandra Zaïnal
Concept & original design : Baudouin d'Aumeries
Assistance for programming : Marc-Olivier Méhu
Technical & hardware support : Manuel Goepfert

Contact : metmap@orbifly.com




SOURCES & CREDITS :

   NOAA